sensor_id;sensor_type;location;lat;lon;timestamp;P1;durP1;ratioP1;P2;durP2;ratioP2
72801;SDS011;61891;55.818;37.084;2023-07-20T00:01:25;3.83;;;1.13;;
72801;SDS011;61891;55.818;37.084;2023-07-20T00:03:51;1.13;;;0.93;;
72801;SDS011;61891;55.818;37.084;2023-07-20T00:06:21;1.98;;;1.02;;
72801;SDS011;61891;55.818;37.084;2023-07-20T00:08:48;2.92;;;1.15;;
72801;SDS011;61891;55.818;37.084;2023-07-20T00:11:13;2.10;;;1.20;;
72801;SDS011;61891;55.818;37.084;2023-07-20T00:13:39;2.88;;;1.20;;
72801;SDS011;61891;55.818;37.084;2023-07-20T00:16:06;3.13;;;1.40;;
72801;SDS011;61891;55.818;37.084;2023-07-20T00:18:32;2.95;;;1.35;;
72801;SDS011;61891;55.818;37.084;2023-07-20T00:20:57;2.65;;;1.23;;
72801;SDS011;61891;55.818;37.084;2023-07-20T00:23:25;4.03;;;1.40;;
72801;SDS011;61891;55.818;37.084;2023-07-20T00:28:17;2.20;;;1.05;;
72801;SDS011;61891;55.818;37.084;2023-07-20T00:30:43;3.58;;;1.20;;
72801;SDS011;61891;55.818;37.084;2023-07-20T00:33:10;2.20;;;1.10;;
72801;SDS011;61891;55.818;37.084;2023-07-20T00:35:37;4.22;;;1.58;;
72801;SDS011;61891;55.818;37.084;2023-07-20T00:38:04;4.13;;;1.70;;
72801;SDS011;61891;55.818;37.084;2023-07-20T00:40:36;6.05;;;2.08;;
72801;SDS011;61891;55.818;37.084;2023-07-20T00:43:06;7.53;;;2.55;;
72801;SDS011;61891;55.818;37.084;2023-07-20T00:45:33;6.10;;;1.98;;
72801;SDS011;61891;55.818;37.084;2023-07-20T00:48:02;3.40;;;1.40;;
72801;SDS011;61891;55.818;37.084;2023-07-20T00:50:31;3.33;;;1.40;;
72801;SDS011;61891;55.818;37.084;2023-07-20T00:52:57;3.13;;;1.50;;
72801;SDS011;61891;55.818;37.084;2023-07-20T00:55:24;3.72;;;1.58;;
72801;SDS011;61891;55.818;37.084;2023-07-20T00:57:52;3.50;;;1.70;;
72801;SDS011;61891;55.818;37.084;2023-07-20T01:00:18;4.05;;;1.48;;
72801;SDS011;61891;55.818;37.084;2023-07-20T01:05:10;7.93;;;1.80;;
72801;SDS011;61891;55.818;37.084;2023-07-20T01:10:36;2.38;;;0.95;;
72801;SDS011;61891;55.818;37.084;2023-07-20T01:13:07;5.20;;;1.33;;
72801;SDS011;61891;55.818;37.084;2023-07-20T01:15:38;2.78;;;1.02;;
72801;SDS011;61891;55.818;37.084;2023-07-20T01:18:04;4.15;;;1.30;;
72801;SDS011;61891;55.818;37.084;2023-07-20T01:20:31;2.92;;;1.30;;
72801;SDS011;61891;55.818;37.084;2023-07-20T01:33:48;4.47;;;1.67;;
72801;SDS011;61891;55.818;37.084;2023-07-20T01:36:16;4.00;;;1.75;;
72801;SDS011;61891;55.818;37.084;2023-07-20T01:38:43;5.20;;;2.00;;
72801;SDS011;61891;55.818;37.084;2023-07-20T01:41:10;7.10;;;2.47;;
72801;SDS011;61891;55.818;37.084;2023-07-20T01:43:37;7.15;;;2.63;;
72801;SDS011;61891;55.818;37.084;2023-07-20T01:46:04;9.38;;;3.08;;
72801;SDS011;61891;55.818;37.084;2023-07-20T01:48:30;6.85;;;2.50;;
72801;SDS011;61891;55.818;37.084;2023-07-20T01:50:56;5.38;;;2.03;;
72801;SDS011;61891;55.818;37.084;2023-07-20T01:53:22;3.20;;;1.50;;
72801;SDS011;61891;55.818;37.084;2023-07-20T01:55:48;5.00;;;2.30;;
72801;SDS011;61891;55.818;37.084;2023-07-20T01:58:14;5.28;;;2.00;;
72801;SDS011;61891;55.818;37.084;2023-07-20T02:00:40;4.50;;;1.73;;
72801;SDS011;61891;55.818;37.084;2023-07-20T02:03:06;4.63;;;1.50;;
72801;SDS011;61891;55.818;37.084;2023-07-20T02:05:32;2.33;;;1.33;;
72801;SDS011;61891;55.818;37.084;2023-07-20T02:07:58;3.25;;;1.67;;
72801;SDS011;61891;55.818;37.084;2023-07-20T02:10:23;4.70;;;1.48;;
72801;SDS011;61891;55.818;37.084;2023-07-20T02:12:49;6.45;;;1.60;;
72801;SDS011;61891;55.818;37.084;2023-07-20T02:15:15;2.92;;;1.33;;
72801;SDS011;61891;55.818;37.084;2023-07-20T02:17:42;2.25;;;1.02;;
72801;SDS011;61891;55.818;37.084;2023-07-20T02:20:28;3.00;;;0.80;;
72801;SDS011;61891;55.818;37.084;2023-07-20T02:22:54;2.08;;;0.98;;
72801;SDS011;61891;55.818;37.084;2023-07-20T02:27:46;2.80;;;0.95;;
72801;SDS011;61891;55.818;37.084;2023-07-20T02:30:11;2.25;;;1.30;;
72801;SDS011;61891;55.818;37.084;2023-07-20T02:32:37;2.55;;;1.10;;
72801;SDS011;61891;55.818;37.084;2023-07-20T02:35:04;3.85;;;1.17;;
72801;SDS011;61891;55.818;37.084;2023-07-20T02:37:32;1.30;;;0.90;;
72801;SDS011;61891;55.818;37.084;2023-07-20T02:39:58;2.47;;;1.27;;
72801;SDS011;61891;55.818;37.084;2023-07-20T02:42:24;2.28;;;1.33;;
72801;SDS011;61891;55.818;37.084;2023-07-20T02:44:52;1.42;;;1.00;;
72801;SDS011;61891;55.818;37.084;2023-07-20T02:49:43;2.25;;;0.88;;
72801;SDS011;61891;55.818;37.084;2023-07-20T02:52:09;2.10;;;1.20;;
72801;SDS011;61891;55.818;37.084;2023-07-20T02:54:35;1.90;;;0.88;;
72801;SDS011;61891;55.818;37.084;2023-07-20T02:57:00;2.03;;;0.93;;
72801;SDS011;61891;55.818;37.084;2023-07-20T02:59:26;1.85;;;0.95;;
72801;SDS011;61891;55.818;37.084;2023-07-20T03:01:52;2.72;;;1.00;;
72801;SDS011;61891;55.818;37.084;2023-07-20T03:04:19;2.40;;;1.00;;
72801;SDS011;61891;55.818;37.084;2023-07-20T03:06:45;1.20;;;0.75;;
72801;SDS011;61891;55.818;37.084;2023-07-20T03:09:11;1.33;;;0.90;;
72801;SDS011;61891;55.818;37.084;2023-07-20T03:11:36;1.75;;;0.95;;
72801;SDS011;61891;55.818;37.084;2023-07-20T03:14:03;1.40;;;0.80;;
72801;SDS011;61891;55.818;37.084;2023-07-20T03:16:29;1.67;;;0.93;;
72801;SDS011;61891;55.818;37.084;2023-07-20T03:19:00;1.80;;;0.80;;
72801;SDS011;61891;55.818;37.084;2023-07-20T03:23:51;1.98;;;0.82;;
72801;SDS011;61891;55.818;37.084;2023-07-20T03:26:17;0.98;;;0.60;;
72801;SDS011;61891;55.818;37.084;2023-07-20T03:28:43;2.03;;;0.73;;
72801;SDS011;61891;55.818;37.084;2023-07-20T03:31:10;1.40;;;0.65;;
72801;SDS011;61891;55.818;37.084;2023-07-20T03:33:38;4.22;;;1.15;;
72801;SDS011;61891;55.818;37.084;2023-07-20T03:36:04;3.47;;;0.90;;
72801;SDS011;61891;55.818;37.084;2023-07-20T03:38:30;1.13;;;0.77;;
72801;SDS011;61891;55.818;37.084;2023-07-20T03:40:57;1.35;;;0.80;;
72801;SDS011;61891;55.818;37.084;2023-07-20T03:43:24;1.55;;;0.73;;
72801;SDS011;61891;55.818;37.084;2023-07-20T03:45:51;2.58;;;0.90;;
72801;SDS011;61891;55.818;37.084;2023-07-20T03:48:21;1.65;;;0.75;;
72801;SDS011;61891;55.818;37.084;2023-07-20T03:50:49;1.65;;;0.80;;
72801;SDS011;61891;55.818;37.084;2023-07-20T03:53:16;2.72;;;0.80;;
72801;SDS011;61891;55.818;37.084;2023-07-20T03:55:50;2.22;;;0.80;;
72801;SDS011;61891;55.818;37.084;2023-07-20T03:58:17;2.50;;;0.75;;
72801;SDS011;61891;55.818;37.084;2023-07-20T04:00:47;2.15;;;0.85;;
72801;SDS011;61891;55.818;37.084;2023-07-20T04:03:14;2.30;;;0.73;;
72801;SDS011;61891;55.818;37.084;2023-07-20T04:05:40;1.60;;;0.95;;
72801;SDS011;61891;55.818;37.084;2023-07-20T04:08:06;1.88;;;0.73;;
72801;SDS011;61891;55.818;37.084;2023-07-20T04:10:32;1.45;;;0.80;;
72801;SDS011;61891;55.818;37.084;2023-07-20T04:12:58;3.15;;;0.63;;
72801;SDS011;61891;55.818;37.084;2023-07-20T04:15:24;0.93;;;0.80;;
72801;SDS011;61891;55.818;37.084;2023-07-20T04:17:50;2.80;;;0.93;;
72801;SDS011;61891;55.818;37.084;2023-07-20T04:20:17;2.20;;;0.73;;
72801;SDS011;61891;55.818;37.084;2023-07-20T04:22:43;2.33;;;0.90;;
72801;SDS011;61891;55.818;37.084;2023-07-20T04:25:12;1.20;;;1.00;;
72801;SDS011;61891;55.818;37.084;2023-07-20T04:27:38;2.25;;;0.93;;
72801;SDS011;61891;55.818;37.084;2023-07-20T04:30:06;1.90;;;0.80;;
72801;SDS011;61891;55.818;37.084;2023-07-20T04:32:33;4.68;;;1.13;;
72801;SDS011;61891;55.818;37.084;2023-07-20T04:35:01;1.83;;;1.10;;
72801;SDS011;61891;55.818;37.084;2023-07-20T04:37:30;2.78;;;0.70;;
72801;SDS011;61891;55.818;37.084;2023-07-20T04:39:56;4.15;;;0.82;;
72801;SDS011;61891;55.818;37.084;2023-07-20T04:42:22;2.28;;;0.90;;
72801;SDS011;61891;55.818;37.084;2023-07-20T04:44:48;4.45;;;1.00;;
72801;SDS011;61891;55.818;37.084;2023-07-20T04:47:13;2.45;;;0.73;;
72801;SDS011;61891;55.818;37.084;2023-07-20T04:49:39;1.77;;;0.80;;
72801;SDS011;61891;55.818;37.084;2023-07-20T04:52:05;0.88;;;0.52;;
72801;SDS011;61891;55.818;37.084;2023-07-20T04:54:31;2.17;;;0.68;;
72801;SDS011;61891;55.818;37.084;2023-07-20T04:56:57;1.35;;;0.80;;
72801;SDS011;61891;55.818;37.084;2023-07-20T04:59:23;0.80;;;0.57;;
72801;SDS011;61891;55.818;37.084;2023-07-20T05:01:49;1.05;;;0.95;;
72801;SDS011;61891;55.818;37.084;2023-07-20T05:04:16;1.80;;;0.70;;
72801;SDS011;61891;55.818;37.084;2023-07-20T05:06:42;1.75;;;0.77;;
72801;SDS011;61891;55.818;37.084;2023-07-20T05:09:08;1.02;;;0.50;;
72801;SDS011;61891;55.818;37.084;2023-07-20T05:11:34;3.72;;;0.73;;
72801;SDS011;61891;55.818;37.084;2023-07-20T05:14:00;1.60;;;0.80;;
72801;SDS011;61891;55.818;37.084;2023-07-20T05:16:27;1.08;;;0.60;;
72801;SDS011;61891;55.818;37.084;2023-07-20T05:18:54;3.20;;;0.68;;
72801;SDS011;61891;55.818;37.084;2023-07-20T05:21:22;1.48;;;0.70;;
72801;SDS011;61891;55.818;37.084;2023-07-20T05:26:15;1.48;;;0.70;;
72801;SDS011;61891;55.818;37.084;2023-07-20T05:28:40;2.35;;;0.73;;
72801;SDS011;61891;55.818;37.084;2023-07-20T05:31:06;0.77;;;0.70;;
72801;SDS011;61891;55.818;37.084;2023-07-20T05:35:58;1.10;;;0.57;;
72801;SDS011;61891;55.818;37.084;2023-07-20T05:38:24;1.48;;;0.60;;
72801;SDS011;61891;55.818;37.084;2023-07-20T05:40:50;2.10;;;0.60;;
72801;SDS011;61891;55.818;37.084;2023-07-20T05:43:16;1.48;;;0.47;;
72801;SDS011;61891;55.818;37.084;2023-07-20T05:45:42;0.52;;;0.40;;
72801;SDS011;61891;55.818;37.084;2023-07-20T05:48:09;1.02;;;0.50;;
72801;SDS011;61891;55.818;37.084;2023-07-20T05:50:38;0.80;;;0.43;;
72801;SDS011;61891;55.818;37.084;2023-07-20T05:53:07;1.17;;;0.65;;
72801;SDS011;61891;55.818;37.084;2023-07-20T05:55:33;1.38;;;0.55;;
72801;SDS011;61891;55.818;37.084;2023-07-20T05:57:59;1.42;;;0.40;;
72801;SDS011;61891;55.818;37.084;2023-07-20T06:00:25;1.58;;;0.43;;
72801;SDS011;61891;55.818;37.084;2023-07-20T06:02:54;0.88;;;0.50;;
72801;SDS011;61891;55.818;37.084;2023-07-20T06:05:21;1.00;;;0.70;;
72801;SDS011;61891;55.818;37.084;2023-07-20T06:07:50;1.40;;;0.60;;
72801;SDS011;61891;55.818;37.084;2023-07-20T06:10:16;1.38;;;0.65;;
72801;SDS011;61891;55.818;37.084;2023-07-20T06:12:44;1.75;;;0.45;;
72801;SDS011;61891;55.818;37.084;2023-07-20T06:15:32;0.50;;;0.30;;
72801;SDS011;61891;55.818;37.084;2023-07-20T06:17:58;1.10;;;0.50;;
72801;SDS011;61891;55.818;37.084;2023-07-20T06:20:24;2.03;;;0.40;;
72801;SDS011;61891;55.818;37.084;2023-07-20T06:22:50;1.95;;;0.45;;
72801;SDS011;61891;55.818;37.084;2023-07-20T06:25:16;0.40;;;0.40;;
72801;SDS011;61891;55.818;37.084;2023-07-20T06:27:42;1.50;;;0.52;;
72801;SDS011;61891;55.818;37.084;2023-07-20T06:30:08;0.63;;;0.50;;
72801;SDS011;61891;55.818;37.084;2023-07-20T06:32:35;2.33;;;0.60;;
72801;SDS011;61891;55.818;37.084;2023-07-20T06:35:01;0.60;;;0.60;;
72801;SDS011;61891;55.818;37.084;2023-07-20T06:37:27;0.88;;;0.45;;
72801;SDS011;61891;55.818;37.084;2023-07-20T06:39:53;1.75;;;0.68;;
72801;SDS011;61891;55.818;37.084;2023-07-20T06:44:44;2.70;;;0.90;;
72801;SDS011;61891;55.818;37.084;2023-07-20T06:47:13;1.83;;;0.90;;
72801;SDS011;61891;55.818;37.084;2023-07-20T06:49:39;4.18;;;0.80;;
72801;SDS011;61891;55.818;37.084;2023-07-20T06:52:05;2.13;;;0.98;;
72801;SDS011;61891;55.818;37.084;2023-07-20T06:54:31;1.75;;;0.93;;
72801;SDS011;61891;55.818;37.084;2023-07-20T06:59:22;1.02;;;0.75;;
72801;SDS011;61891;55.818;37.084;2023-07-20T07:01:49;1.70;;;0.68;;
72801;SDS011;61891;55.818;37.084;2023-07-20T07:04:15;2.75;;;0.70;;
72801;SDS011;61891;55.818;37.084;2023-07-20T07:09:06;2.05;;;0.77;;
72801;SDS011;61891;55.818;37.084;2023-07-20T07:11:33;0.65;;;0.50;;
72801;SDS011;61891;55.818;37.084;2023-07-20T07:13:59;1.17;;;0.50;;
72801;SDS011;61891;55.818;37.084;2023-07-20T07:18:51;3.20;;;0.65;;
72801;SDS011;61891;55.818;37.084;2023-07-20T07:23:42;1.42;;;0.60;;
72801;SDS011;61891;55.818;37.084;2023-07-20T07:26:09;1.70;;;0.60;;
72801;SDS011;61891;55.818;37.084;2023-07-20T07:28:36;3.03;;;0.60;;
72801;SDS011;61891;55.818;37.084;2023-07-20T07:31:05;0.90;;;0.60;;
72801;SDS011;61891;55.818;37.084;2023-07-20T07:33:32;2.10;;;0.70;;
72801;SDS011;61891;55.818;37.084;2023-07-20T07:38:23;3.38;;;0.70;;
72801;SDS011;61891;55.818;37.084;2023-07-20T07:40:49;2.42;;;0.70;;
72801;SDS011;61891;55.818;37.084;2023-07-20T07:43:15;1.00;;;0.60;;
72801;SDS011;61891;55.818;37.084;2023-07-20T07:45:42;3.05;;;0.70;;
72801;SDS011;61891;55.818;37.084;2023-07-20T07:50:36;2.33;;;0.63;;
72801;SDS011;61891;55.818;37.084;2023-07-20T07:53:02;3.30;;;0.60;;
72801;SDS011;61891;55.818;37.084;2023-07-20T07:57:54;1.23;;;0.50;;
72801;SDS011;61891;55.818;37.084;2023-07-20T08:00:20;1.67;;;0.52;;
72801;SDS011;61891;55.818;37.084;2023-07-20T08:05:14;1.20;;;0.65;;
72801;SDS011;61891;55.818;37.084;2023-07-20T08:10:06;1.73;;;0.80;;
72801;SDS011;61891;55.818;37.084;2023-07-20T08:12:32;1.52;;;0.50;;
72801;SDS011;61891;55.818;37.084;2023-07-20T08:17:24;2.03;;;0.80;;
72801;SDS011;61891;55.818;37.084;2023-07-20T08:19:49;3.35;;;0.93;;
72801;SDS011;61891;55.818;37.084;2023-07-20T08:24:42;5.15;;;1.42;;
72801;SDS011;61891;55.818;37.084;2023-07-20T08:27:09;1.70;;;0.70;;
72801;SDS011;61891;55.818;37.084;2023-07-20T08:29:35;2.05;;;0.90;;
72801;SDS011;61891;55.818;37.084;2023-07-20T08:32:01;3.17;;;0.70;;
72801;SDS011;61891;55.818;37.084;2023-07-20T08:34:28;1.42;;;0.60;;
72801;SDS011;61891;55.818;37.084;2023-07-20T08:39:19;1.20;;;0.70;;
72801;SDS011;61891;55.818;37.084;2023-07-20T08:41:48;5.22;;;1.40;;
72801;SDS011;61891;55.818;37.084;2023-07-20T08:44:17;3.75;;;1.30;;
72801;SDS011;61891;55.818;37.084;2023-07-20T08:46:46;5.30;;;2.00;;
72801;SDS011;61891;55.818;37.084;2023-07-20T08:49:15;2.28;;;0.80;;
72801;SDS011;61891;55.818;37.084;2023-07-20T08:51:43;1.77;;;0.73;;
72801;SDS011;61891;55.818;37.084;2023-07-20T08:54:12;0.82;;;0.65;;
72801;SDS011;61891;55.818;37.084;2023-07-20T08:56:40;3.80;;;1.13;;
72801;SDS011;61891;55.818;37.084;2023-07-20T08:59:08;2.67;;;0.85;;
72801;SDS011;61891;55.818;37.084;2023-07-20T09:01:34;2.00;;;0.93;;
72801;SDS011;61891;55.818;37.084;2023-07-20T09:04:01;2.35;;;1.10;;
72801;SDS011;61891;55.818;37.084;2023-07-20T09:06:28;1.92;;;0.85;;
72801;SDS011;61891;55.818;37.084;2023-07-20T09:08:54;2.55;;;0.93;;
72801;SDS011;61891;55.818;37.084;2023-07-20T09:11:21;1.63;;;0.90;;
72801;SDS011;61891;55.818;37.084;2023-07-20T09:16:15;1.30;;;0.95;;
72801;SDS011;61891;55.818;37.084;2023-07-20T09:18:41;1.63;;;0.82;;
72801;SDS011;61891;55.818;37.084;2023-07-20T09:23:36;2.60;;;1.10;;
72801;SDS011;61891;55.818;37.084;2023-07-20T09:26:11;1.85;;;1.05;;
72801;SDS011;61891;55.818;37.084;2023-07-20T09:28:43;3.15;;;1.10;;
72801;SDS011;61891;55.818;37.084;2023-07-20T09:31:16;2.75;;;0.90;;
72801;SDS011;61891;55.818;37.084;2023-07-20T09:33:44;2.58;;;1.00;;
72801;SDS011;61891;55.818;37.084;2023-07-20T09:36:10;2.78;;;1.00;;
72801;SDS011;61891;55.818;37.084;2023-07-20T09:38:42;1.05;;;0.77;;
72801;SDS011;61891;55.818;37.084;2023-07-20T09:41:12;1.88;;;1.13;;
72801;SDS011;61891;55.818;37.084;2023-07-20T09:43:39;1.88;;;0.90;;
72801;SDS011;61891;55.818;37.084;2023-07-20T09:46:05;1.90;;;1.00;;
72801;SDS011;61891;55.818;37.084;2023-07-20T09:48:31;1.73;;;0.90;;
72801;SDS011;61891;55.818;37.084;2023-07-20T09:53:23;2.35;;;1.00;;
72801;SDS011;61891;55.818;37.084;2023-07-20T09:55:51;3.58;;;0.95;;
72801;SDS011;61891;55.818;37.084;2023-07-20T09:58:18;3.22;;;1.25;;
72801;SDS011;61891;55.818;37.084;2023-07-20T10:00:44;1.75;;;1.00;;
72801;SDS011;61891;55.818;37.084;2023-07-20T10:03:19;1.95;;;1.13;;
72801;SDS011;61891;55.818;37.084;2023-07-20T10:05:54;2.85;;;1.45;;
72801;SDS011;61891;55.818;37.084;2023-07-20T10:08:23;2.58;;;1.35;;
72801;SDS011;61891;55.818;37.084;2023-07-20T10:10:50;1.65;;;1.00;;
72801;SDS011;61891;55.818;37.084;2023-07-20T10:13:17;3.83;;;1.42;;
72801;SDS011;61891;55.818;37.084;2023-07-20T10:15:46;2.97;;;1.30;;
72801;SDS011;61891;55.818;37.084;2023-07-20T10:18:22;1.30;;;1.08;;
72801;SDS011;61891;55.818;37.084;2023-07-20T10:20:55;2.03;;;1.00;;
72801;SDS011;61891;55.818;37.084;2023-07-20T10:23:22;2.92;;;1.20;;
72801;SDS011;61891;55.818;37.084;2023-07-20T10:25:48;2.15;;;1.10;;
72801;SDS011;61891;55.818;37.084;2023-07-20T10:28:15;1.95;;;1.10;;
72801;SDS011;61891;55.818;37.084;2023-07-20T10:30:42;2.15;;;1.02;;
72801;SDS011;61891;55.818;37.084;2023-07-20T10:33:08;1.90;;;0.98;;
72801;SDS011;61891;55.818;37.084;2023-07-20T10:35:53;2.75;;;0.95;;
72801;SDS011;61891;55.818;37.084;2023-07-20T10:41:16;8.07;;;2.30;;
72801;SDS011;61891;55.818;37.084;2023-07-20T10:43:43;7.20;;;2.05;;
72801;SDS011;61891;55.818;37.084;2023-07-20T10:46:10;2.90;;;1.23;;
72801;SDS011;61891;55.818;37.084;2023-07-20T10:48:58;2.58;;;1.30;;
72801;SDS011;61891;55.818;37.084;2023-07-20T10:51:28;3.85;;;1.58;;
72801;SDS011;61891;55.818;37.084;2023-07-20T10:53:55;7.03;;;2.33;;
72801;SDS011;61891;55.818;37.084;2023-07-20T10:56:27;7.43;;;2.22;;
72801;SDS011;61891;55.818;37.084;2023-07-20T10:59:00;7.15;;;2.22;;
72801;SDS011;61891;55.818;37.084;2023-07-20T11:01:30;5.45;;;1.85;;
72801;SDS011;61891;55.818;37.084;2023-07-20T11:03:57;6.20;;;1.85;;
72801;SDS011;61891;55.818;37.084;2023-07-20T11:09:09;4.22;;;1.52;;
72801;SDS011;61891;55.818;37.084;2023-07-20T11:14:10;2.42;;;1.13;;
72801;SDS011;61891;55.818;37.084;2023-07-20T11:16:47;2.70;;;0.90;;
72801;SDS011;61891;55.818;37.084;2023-07-20T11:19:15;3.08;;;1.40;;
72801;SDS011;61891;55.818;37.084;2023-07-20T11:21:45;2.45;;;1.05;;
72801;SDS011;61891;55.818;37.084;2023-07-20T11:24:12;2.22;;;1.15;;
72801;SDS011;61891;55.818;37.084;2023-07-20T11:26:39;0.98;;;0.63;;
72801;SDS011;61891;55.818;37.084;2023-07-20T11:29:06;1.05;;;0.88;;
72801;SDS011;61891;55.818;37.084;2023-07-20T11:31:34;2.15;;;0.68;;
72801;SDS011;61891;55.818;37.084;2023-07-20T11:34:01;1.50;;;0.82;;
72801;SDS011;61891;55.818;37.084;2023-07-20T11:36:27;1.67;;;1.20;;
72801;SDS011;61891;55.818;37.084;2023-07-20T11:38:53;1.92;;;0.95;;
72801;SDS011;61891;55.818;37.084;2023-07-20T11:41:19;3.10;;;0.90;;
72801;SDS011;61891;55.818;37.084;2023-07-20T11:43:45;1.73;;;1.02;;
72801;SDS011;61891;55.818;37.084;2023-07-20T11:46:11;1.90;;;0.95;;
72801;SDS011;61891;55.818;37.084;2023-07-20T11:51:02;2.80;;;1.38;;
72801;SDS011;61891;55.818;37.084;2023-07-20T11:55:54;1.77;;;1.45;;
72801;SDS011;61891;55.818;37.084;2023-07-20T11:58:20;3.83;;;1.20;;
72801;SDS011;61891;55.818;37.084;2023-07-20T12:00:47;2.55;;;1.33;;
72801;SDS011;61891;55.818;37.084;2023-07-20T12:03:13;2.17;;;1.67;;
72801;SDS011;61891;55.818;37.084;2023-07-20T12:05:39;2.58;;;1.40;;
72801;SDS011;61891;55.818;37.084;2023-07-20T12:08:07;1.73;;;1.60;;
72801;SDS011;61891;55.818;37.084;2023-07-20T12:10:33;2.75;;;1.40;;
72801;SDS011;61891;55.818;37.084;2023-07-20T12:13:02;2.70;;;1.10;;
72801;SDS011;61891;55.818;37.084;2023-07-20T12:15:32;3.92;;;1.25;;
72801;SDS011;61891;55.818;37.084;2023-07-20T12:17:59;2.05;;;1.33;;
72801;SDS011;61891;55.818;37.084;2023-07-20T12:23:00;4.10;;;2.25;;
72801;SDS011;61891;55.818;37.084;2023-07-20T12:25:41;2.58;;;1.42;;
72801;SDS011;61891;55.818;37.084;2023-07-20T12:28:12;1.92;;;1.30;;
72801;SDS011;61891;55.818;37.084;2023-07-20T12:30:41;1.90;;;1.40;;
72801;SDS011;61891;55.818;37.084;2023-07-20T12:33:07;1.67;;;1.20;;
72801;SDS011;61891;55.818;37.084;2023-07-20T12:35:34;2.47;;;1.35;;
72801;SDS011;61891;55.818;37.084;2023-07-20T12:38:02;3.33;;;1.33;;
72801;SDS011;61891;55.818;37.084;2023-07-20T12:40:28;1.90;;;1.30;;
72801;SDS011;61891;55.818;37.084;2023-07-20T12:42:55;2.13;;;0.90;;
72801;SDS011;61891;55.818;37.084;2023-07-20T12:45:21;2.90;;;1.38;;
72801;SDS011;61891;55.818;37.084;2023-07-20T12:47:47;2.50;;;1.40;;
72801;SDS011;61891;55.818;37.084;2023-07-20T12:50:13;1.83;;;1.33;;
72801;SDS011;61891;55.818;37.084;2023-07-20T12:52:39;2.10;;;1.60;;
72801;SDS011;61891;55.818;37.084;2023-07-20T12:55:06;1.45;;;1.15;;
72801;SDS011;61891;55.818;37.084;2023-07-20T12:57:36;1.55;;;0.90;;
72801;SDS011;61891;55.818;37.084;2023-07-20T13:00:03;5.32;;;1.80;;
72801;SDS011;61891;55.818;37.084;2023-07-20T13:02:33;1.33;;;1.08;;
72801;SDS011;61891;55.818;37.084;2023-07-20T13:05:00;1.63;;;1.25;;
72801;SDS011;61891;55.818;37.084;2023-07-20T13:07:30;3.85;;;1.30;;
72801;SDS011;61891;55.818;37.084;2023-07-20T13:10:00;2.67;;;1.40;;
72801;SDS011;61891;55.818;37.084;2023-07-20T13:12:29;2.45;;;1.48;;
72801;SDS011;61891;55.818;37.084;2023-07-20T13:14:56;2.47;;;1.30;;
72801;SDS011;61891;55.818;37.084;2023-07-20T13:17:26;1.83;;;1.10;;
72801;SDS011;61891;55.818;37.084;2023-07-20T13:19:53;1.45;;;1.08;;
72801;SDS011;61891;55.818;37.084;2023-07-20T13:22:20;2.45;;;1.40;;
72801;SDS011;61891;55.818;37.084;2023-07-20T13:24:46;2.65;;;1.10;;
72801;SDS011;61891;55.818;37.084;2023-07-20T13:27:16;3.28;;;1.38;;
72801;SDS011;61891;55.818;37.084;2023-07-20T13:29:43;2.72;;;1.17;;
72801;SDS011;61891;55.818;37.084;2023-07-20T13:32:09;1.77;;;1.10;;
72801;SDS011;61891;55.818;37.084;2023-07-20T13:34:35;1.90;;;1.10;;
72801;SDS011;61891;55.818;37.084;2023-07-20T13:37:02;4.45;;;1.10;;
72801;SDS011;61891;55.818;37.084;2023-07-20T13:39:28;2.75;;;1.10;;
72801;SDS011;61891;55.818;37.084;2023-07-20T13:41:54;3.50;;;1.27;;
72801;SDS011;61891;55.818;37.084;2023-07-20T13:44:20;2.53;;;1.58;;
72801;SDS011;61891;55.818;37.084;2023-07-20T13:46:47;4.95;;;1.45;;
72801;SDS011;61891;55.818;37.084;2023-07-20T13:49:13;1.92;;;1.30;;
72801;SDS011;61891;55.818;37.084;2023-07-20T13:51:40;3.05;;;1.25;;
72801;SDS011;61891;55.818;37.084;2023-07-20T13:54:09;1.42;;;1.10;;
72801;SDS011;61891;55.818;37.084;2023-07-20T13:56:35;2.13;;;1.20;;
72801;SDS011;61891;55.818;37.084;2023-07-20T14:01:27;3.60;;;1.00;;
72801;SDS011;61891;55.818;37.084;2023-07-20T14:03:55;2.95;;;1.42;;
72801;SDS011;61891;55.818;37.084;2023-07-20T14:06:21;3.28;;;1.50;;
72801;SDS011;61891;55.818;37.084;2023-07-20T14:08:47;1.50;;;1.40;;
72801;SDS011;61891;55.818;37.084;2023-07-20T14:11:14;2.85;;;1.45;;
72801;SDS011;61891;55.818;37.084;2023-07-20T14:13:40;2.28;;;1.20;;
72801;SDS011;61891;55.818;37.084;2023-07-20T14:16:06;2.03;;;1.17;;
72801;SDS011;61891;55.818;37.084;2023-07-20T14:18:32;1.30;;;1.20;;
72801;SDS011;61891;55.818;37.084;2023-07-20T14:20:58;2.45;;;1.30;;
72801;SDS011;61891;55.818;37.084;2023-07-20T14:23:24;1.60;;;1.25;;
72801;SDS011;61891;55.818;37.084;2023-07-20T14:25:50;1.85;;;1.30;;
72801;SDS011;61891;55.818;37.084;2023-07-20T14:28:16;2.47;;;1.42;;
72801;SDS011;61891;55.818;37.084;2023-07-20T14:30:42;2.72;;;1.45;;
72801;SDS011;61891;55.818;37.084;2023-07-20T14:33:07;3.25;;;1.40;;
72801;SDS011;61891;55.818;37.084;2023-07-20T14:35:33;2.00;;;1.40;;
72801;SDS011;61891;55.818;37.084;2023-07-20T14:38:00;1.95;;;1.33;;
72801;SDS011;61891;55.818;37.084;2023-07-20T14:40:26;1.77;;;1.42;;
72801;SDS011;61891;55.818;37.084;2023-07-20T14:42:52;2.38;;;1.40;;
72801;SDS011;61891;55.818;37.084;2023-07-20T14:45:18;2.10;;;1.30;;
72801;SDS011;61891;55.818;37.084;2023-07-20T14:47:44;1.70;;;1.20;;
72801;SDS011;61891;55.818;37.084;2023-07-20T14:50:10;2.33;;;1.13;;
72801;SDS011;61891;55.818;37.084;2023-07-20T14:52:37;1.20;;;1.10;;
72801;SDS011;61891;55.818;37.084;2023-07-20T14:55:03;2.15;;;1.13;;
72801;SDS011;61891;55.818;37.084;2023-07-20T14:57:31;3.45;;;1.20;;
72801;SDS011;61891;55.818;37.084;2023-07-20T14:59:57;4.10;;;1.20;;
72801;SDS011;61891;55.818;37.084;2023-07-20T15:02:23;2.00;;;0.90;;
72801;SDS011;61891;55.818;37.084;2023-07-20T15:04:50;2.38;;;1.00;;
72801;SDS011;61891;55.818;37.084;2023-07-20T15:07:20;2.22;;;1.38;;
72801;SDS011;61891;55.818;37.084;2023-07-20T15:09:49;1.60;;;1.27;;
72801;SDS011;61891;55.818;37.084;2023-07-20T15:12:15;1.60;;;0.77;;
72801;SDS011;61891;55.818;37.084;2023-07-20T15:14:41;1.70;;;0.85;;
72801;SDS011;61891;55.818;37.084;2023-07-20T15:17:08;1.75;;;0.88;;
72801;SDS011;61891;55.818;37.084;2023-07-20T15:19:34;1.55;;;0.70;;
72801;SDS011;61891;55.818;37.084;2023-07-20T15:22:02;1.80;;;0.80;;
72801;SDS011;61891;55.818;37.084;2023-07-20T15:24:29;1.70;;;0.90;;
72801;SDS011;61891;55.818;37.084;2023-07-20T15:26:55;3.47;;;1.00;;
72801;SDS011;61891;55.818;37.084;2023-07-20T15:31:46;2.42;;;0.98;;
72801;SDS011;61891;55.818;37.084;2023-07-20T15:34:13;2.30;;;1.10;;
72801;SDS011;61891;55.818;37.084;2023-07-20T15:36:41;1.70;;;1.05;;
72801;SDS011;61891;55.818;37.084;2023-07-20T15:39:10;1.45;;;0.80;;
72801;SDS011;61891;55.818;37.084;2023-07-20T15:41:36;3.08;;;1.10;;
72801;SDS011;61891;55.818;37.084;2023-07-20T15:49:07;2.58;;;1.30;;
72801;SDS011;61891;55.818;37.084;2023-07-20T15:54:02;1.98;;;1.15;;
72801;SDS011;61891;55.818;37.084;2023-07-20T15:56:28;4.47;;;1.13;;
72801;SDS011;61891;55.818;37.084;2023-07-20T16:01:19;2.20;;;1.10;;
72801;SDS011;61891;55.818;37.084;2023-07-20T16:06:10;2.67;;;0.95;;
72801;SDS011;61891;55.818;37.084;2023-07-20T16:11:02;1.80;;;0.90;;
72801;SDS011;61891;55.818;37.084;2023-07-20T16:13:28;2.13;;;1.10;;
72801;SDS011;61891;55.818;37.084;2023-07-20T16:15:54;1.90;;;1.00;;
72801;SDS011;61891;55.818;37.084;2023-07-20T16:20:46;4.82;;;1.60;;